GB-0031 weather

Public forecast

Using degrees Celsius for public forecast. Weather courtesy of forecast.io.

Closest aviation weather report (METAR) to Middle Pymore Farm Airstrip (Private)

Closest report is RNAS Yeovilton, 16.2 nm (29.9 km) NNE. Retrieved 2020/08/11 12:21 UTC (0 seconds ago):

EGDY 111221Z 05002KT CAVOK 29/20 Q1014 NOSIG RMK BLU BLU

Closest aviation forecast (TAF) to Middle Pymore Farm Airstrip (Private)

Forecast is more than 12 hours old.

Closest forecast is RNAS Yeovilton, 16.2 nm (29.9 km) NNE. Retrieved 2020/07/01 18:15 UTC (1 month ago):

TAF TAF EGDY 010110Z 3018/0103 CNL